Latest Coastal Weather Observations for Portland Harbour

IDS60701

Issued at 8:21 pm CST Friday 21 July 2017 (issued every 10 minutes, with the page automatically refreshed every 10 minutes)

About coastal observations | Map of coastal stations | Coastal observations for SA | Marine services | Other Formats
Station Details ID: 090192 Name: PORTLAND NTC AWS Lat: -38.34 Lon: 141.61 Height: 0.0 m
Data from the previous 72 hours. | See also: Recent months for locations in South Australia
Date/Time
CST
Temp
°C
Wind Pressure Rain since
9am
mm
Weather Cloud Vis
km
Sea
Height
m
Swell
Dir  Spd
kts
Gust
kts
hPa Trend Height
m
Period
s
Dir
21/08:00pm 9.9 N 12 14 1019.3 - - - - - - - - -
21/07:30pm 10.4 N 11 13 1019.3 - - - - - - - - -
21/07:00pm 10.4 N 11 13 1019.3 - - - - - - - - -
21/06:30pm 10.9 N 10 12 1019.6 - - - - - - - - -
21/06:00pm 11.6 N 12 15 1019.2 - - - - - - - - -
21/05:30pm 11.5 N 8 11 1019.3 - - - - - - - - -
21/05:00pm 12.0 N 10 12 1019.0 - - - - - - - - -
21/04:30pm 12.3 N 14 16 1019.0 - - - - - - - - -
21/04:00pm 12.5 N 16 20 1018.7 - - - - - - - - -
21/03:30pm 12.7 N 15 19 1018.7 - - - - - - - - -
21/03:00pm 12.7 N 17 20 1019.0 - - - - - - - - -
21/02:30pm 12.6 N 16 20 1019.2 - - - - - - - - -
21/02:00pm 12.4 N 15 19 1019.4 - - - - - - - - -
21/01:30pm 12.3 N 15 19 1019.8 - - - - - - - - -
21/01:00pm 12.0 N 15 20 1020.5 - - - - - - - - -
21/12:30pm 11.8 N 15 18 1020.9 - - - - - - - - -
21/12:00pm 11.4 N 15 19 1021.5 - - - - - - - - -
21/11:30am 10.9 N 16 19 1022.2 - - - - - - - - -
21/11:00am 10.5 NNW 15 18 1022.8 - - - - - - - - -
21/10:30am 9.8 NNW 15 19 1023.3 - - - - - - - - -
21/10:00am 9.2 N 10 14 1023.6 - - - - - - - - -
21/09:30am 7.8 NNW 7 9 1023.6 - - - - - - - - -
21/09:00am 7.6 N 9 11 1023.4 - - - - - - - - -
21/08:30am 7.3 N 3 6 1023.2 - - - - - - - - -
21/08:00am 5.5 NW 3 5 1023.2 - - - - - - - - -
21/07:30am 5.5 W 4 5 1022.8 - - - - - - - - -
21/07:00am 7.0 NNW 3 8 1022.6 - - - - - - - - -
21/06:30am 7.0 N 6 8 1022.4 - - - - - - - - -
21/06:00am 4.9 SW 2 3 1022.6 - - - - - - - - -
21/05:30am 3.9 WSW 3 4 1022.6 - - - - - - - - -
21/05:00am 3.9 WSW 4 5 1022.4 - - - - - - - - -
21/04:30am 4.2 SW 3 4 1022.1 - - - - - - - - -
21/04:00am 4.1 W 4 5 1021.9 - - - - - - - - -
21/03:30am 4.7 SW 3 3 1021.7 - - - - - - - - -
21/03:00am 4.3 SW 2 3 1022.0 - - - - - - - - -
21/02:30am 4.5 SW 2 3 1022.0 - - - - - - - - -
21/02:00am 4.9 SW 2 3 1022.2 - - - - - - - - -
21/01:30am 4.8 SSW 3 4 1022.5 - - - - - - - - -
21/01:00am 4.8 WSW 2 4 1022.9 - - - - - - - - -
21/12:30am 5.1 W 4 5 1023.0 - - - - - - - - -
21/12:00am 5.7 WSW 2 4 1023.0 - - - - - - - - -
 
Date/Time
CST
Temp
°C
Wind Pressure Rain since
9am
mm
Weather Cloud Vis
km
Sea
Height
m
Swell
Dir  Spd
kts
Gust
kts
hPa Trend Height
m
Period
s
Dir
20/11:30pm 5.8 SSW 3 4 1023.1 - - - - - - - - -
20/11:00pm 6.0 W 3 5 1023.1 - - - - - - - - -
20/10:30pm 6.3 W 5 7 1023.1 - - - - - - - - -
20/10:00pm 6.1 SW 1 3 1023.0 - - - - - - - - -
20/09:30pm 6.0 SW 3 4 1022.9 - - - - - - - - -
20/09:00pm 7.1 WNW 6 8 1022.7 - - - - - - - - -
20/08:30pm 11.3 ESE 7 11 1022.6 - - - - - - - - -
20/08:00pm 11.4 E 6 11 1022.6 - - - - - - - - -
20/07:30pm 11.2 ESE 4 9 1022.6 - - - - - - - - -
20/07:00pm 11.4 ESE 6 9 1022.4 - - - - - - - - -
20/06:30pm 11.3 SE 7 11 1022.1 - - - - - - - - -
20/06:00pm 11.4 SE 9 13 1021.9 - - - - - - - - -
20/05:30pm 11.3 SE 9 13 1021.5 - - - - - - - - -
20/05:00pm 11.4 SE 11 16 1021.5 - - - - - - - - -
20/04:30pm 11.4 SSE 10 13 1021.6 - - - - - - - - -
20/04:00pm 11.4 SSE 9 12 1021.6 - - - - - - - - -
20/03:30pm 11.4 SSE 11 17 1021.5 - - - - - - - - -
20/03:00pm 11.7 S 11 16 1021.3 - - - - - - - - -
20/02:30pm 11.8 S 13 18 1021.2 - - - - - - - - -
20/02:00pm 11.5 S 12 19 1021.1 - - - - - - - - -
20/01:30pm 11.2 SSW 12 16 1021.3 - - - - - - - - -
20/01:00pm 11.4 S 13 18 1021.4 - - - - - - - - -
20/12:30pm 11.8 SSW 15 22 1021.8 - - - - - - - - -
20/12:00pm 11.4 SSW 14 23 1021.8 - - - - - - - - -
20/11:30am 11.6 SSW 15 23 1021.9 - - - - - - - - -
20/11:00am 10.9 SSW 16 22 1022.0 - - - - - - - - -
20/10:30am 11.3 SW 12 17 1022.0 - - - - - - - - -
20/10:00am 11.0 SW 13 19 1022.1 - - - - - - - - -
20/09:30am 11.1 SSW 18 26 1021.7 - - - - - - - - -
20/09:24am 11.1 SSW 15 26 1021.5 - - - - - - - - -
20/09:00am 11.1 SSW 16 21 1021.4 - - - - - - - - -
20/08:30am 10.8 SW 12 20 1021.0 - - - - - - - - -
20/08:00am 10.9 SSW 16 22 1020.9 - - - - - - - - -
20/07:30am 10.7 SW 14 20 1020.6 - - - - - - - - -
20/07:00am 10.9 SSW 19 27 1020.2 - - - - - - - - -
20/06:30am 11.1 SSW 19 28 1019.7 - - - - - - - - -
20/06:26am 11.1 SSW 18 28 1019.7 - - - - - - - - -
20/06:00am 10.7 SW 13 19 1019.6 - - - - - - - - -
20/05:30am 10.5 SSW 17 25 1019.4 - - - - - - - - -
20/05:05am 11.5 SW 18 28 1019.2 - - - - - - - - -
20/05:00am 11.8 SW 16 23 1019.2 - - - - - - - - -
20/04:32am 11.9 SW 17 27 1019.2 - - - - - - - - -
20/04:30am 11.9 SW 18 27 1019.2 - - - - - - - - -
20/04:00am 11.8 SW 17 23 1019.1 - - - - - - - - -
20/03:38am 11.9 SW 18 28 1019.0 - - - - - - - - -
20/03:30am 11.8 SW 20 29 1019.0 - - - - - - - - -
20/03:14am 11.9 SW 17 31 1018.9 - - - - - - - - -
20/03:00am 11.9 SW 20 28 1019.1 - - - - - - - - -
20/02:42am 11.7 SW 15 26 1019.1 - - - - - - - - -
20/02:30am 11.7 SW 17 23 1019.2 - - - - - - - - -
20/02:09am 11.9 WSW 18 28 1019.2 - - - - - - - - -
20/02:00am 11.8 SW 16 23 1019.2 - - - - - - - - -
20/01:30am 11.8 SW 18 26 1019.2 - - - - - - - - -
20/01:21am 11.7 SW 16 26 1019.2 - - - - - - - - -
20/01:00am 11.8 SW 19 28 1019.5 - - - - - - - - -
20/12:47am 11.8 SW 16 26 1019.4 - - - - - - - - -
20/12:30am 11.8 SW 16 24 1019.7 - - - - - - - - -
20/12:00am 11.7 SW 16 21 1019.8 - - - - - - - - -
 
Date/Time
CST
Temp
°C
Wind Pressure Rain since
9am
mm
Weather Cloud Vis
km
Sea
Height
m
Swell
Dir  Spd
kts
Gust
kts
hPa Trend Height
m
Period
s
Dir
19/11:30pm 11.6 SW 16 26 1020.2 - - - - - - - - -
19/11:21pm 11.6 SW 16 26 1020.2 - - - - - - - - -
19/11:00pm 11.6 SW 15 22 1020.3 - - - - - - - - -
19/10:30pm 11.5 SW 16 24 1020.5 - - - - - - - - -
19/10:00pm 11.5 SW 15 21 1020.6 - - - - - - - - -
19/09:40pm 11.6 SW 15 26 1020.7 - - - - - - - - -
19/09:30pm 11.5 SW 16 22 1020.8 - - - - - - - - -
19/09:18pm 11.4 SW 15 26 1021.0 - - - - - - - - -
19/09:00pm 11.4 SW 14 22 1021.0 - - - - - - - - -
19/08:30pm 11.2 WSW 13 20 1021.0 - - - - - - - - -
19/08:00pm 11.0 WSW 13 18 1020.9 - - - - - - - - -
19/07:30pm 11.0 WSW 11 16 1020.8 - - - - - - - - -
19/07:00pm 11.1 WSW 10 15 1020.9 - - - - - - - - -
19/06:30pm 11.3 SW 11 16 1020.7 - - - - - - - - -
19/06:00pm 11.4 SW 12 17 1020.8 - - - - - - - - -
19/05:30pm 11.2 SW 10 18 1020.7 - - - - - - - - -
19/05:00pm 10.9 SW 10 14 1020.2 - - - - - - - - -
19/04:30pm 11.4 SW 12 16 1019.9 - - - - - - - - -
19/04:00pm 11.6 SW 11 16 1019.7 - - - - - - - - -
19/03:30pm 11.6 SSW 10 15 1019.7 - - - - - - - - -
19/03:00pm 11.9 SSW 18 25 1019.6 - - - - - - - - -
19/02:40pm 12.2 SSW 15 26 1019.5 - - - - - - - - -
19/02:30pm 12.1 SSW 14 20 1019.6 - - - - - - - - -
19/02:00pm 11.8 SSW 19 27 1019.8 - - - - - - - - -
19/01:30pm 11.9 SSW 15 22 1019.5 - - - - - - - - -
19/01:00pm 11.7 SSW 19 26 1019.6 - - - - - - - - -
19/12:30pm 11.7 SSW 18 27 1019.5 - - - - - - - - -
19/12:00pm 11.7 S 18 23 1019.7 - - - - - - - - -
19/11:30am 11.6 SSW 18 26 1019.8 - - - - - - - - -
19/11:00am 11.8 SSW 20 29 1019.6 - - - - - - - - -
19/10:44am 11.7 SSW 19 29 1019.6 - - - - - - - - -
19/10:30am 11.7 S 18 27 1019.3 - - - - - - - - -
19/10:00am 11.5 SSW 22 28 1018.9 - - - - - - - - -
19/09:35am 11.1 SSW 17 29 1018.6 - - - - - - - - -
19/09:30am 10.9 SSW 15 21 1018.6 - - - - - - - - -
19/09:03am 10.7 S 19 31 1018.0 - - - - - - - - -
19/09:00am 10.9 S 19 27 1017.9 - - - - - - - - -
19/08:38am 11.3 SSW 20 31 1017.3 - - - - - - - - -
19/08:30am 11.2 SSW 21 29 1017.1 - - - - - - - - -
19/08:00am 11.2 S 19 29 1016.5 - - - - - - - - -
19/07:30am 11.2 SSW 21 29 1016.2 - - - - - - - - -
19/07:01am 11.1 SSW 22 33 1015.6 - - - - - - - - -
19/07:00am 11.1 SSW 22 30 1015.6 - - - - - - - - -
19/06:30am 11.2 SSW 20 31 1015.1 - - - - - - - - -
19/06:19am 11.6 S 22 32 1014.7 - - - - - - - - -
19/06:00am 11.2 SSW 19 29 1014.6 - - - - - - - - -
19/05:45am 11.4 SSW 22 32 1014.3 - - - - - - - - -
19/05:30am 11.4 SSW 21 28 1013.9 - - - - - - - - -
19/05:06am 11.8 SSW 22 32 1013.6 - - - - - - - - -
19/05:00am 11.8 SSW 21 29 1013.6 - - - - - - - - -
19/04:31am 12.2 SSW 21 31 1012.9 - - - - - - - - -
19/04:30am 12.2 SSW 20 29 1012.9 - - - - - - - - -
19/04:04am 12.0 S 23 33 1012.2 - - - - - - - - -
19/04:00am 12.0 SSW 23 31 1012.2 - - - - - - - - -
19/03:30am 11.5 S 24 35 1011.6 - - - - - - - - -
19/03:15am 12.3 SSW 24 35 1011.3 - - - - - - - - -
19/03:00am 12.3 SSW 24 33 1011.0 - - - - - - - - -
19/02:30am 12.3 S 22 33 1010.6 - - - - - - - - -
19/02:06am 11.9 S 20 30 1010.3 - - - - - - - - -
19/02:00am 11.4 S 23 31 1010.3 - - - - - - - - -
19/01:30am 12.0 SSW 18 29 1009.7 - - - - - - - - -
19/01:26am 12.3 SSW 18 29 1009.7 - - - - - - - - -
19/01:00am 12.5 SSW 13 19 1009.5 - - - - - - - - -
19/12:30am 12.3 SW 12 19 1009.1 - - - - - - - - -
19/12:00am 12.0 SW 12 19 1008.8 - - - - - - - - -
 
Date/Time
CST
Temp
°C
Wind Pressure Rain since
9am
mm
Weather Cloud Vis
km
Sea
Height
m
Swell
Dir  Spd
kts
Gust
kts
hPa Trend Height
m
Period
s
Dir
18/11:30pm 12.0 SW 13 19 1008.7 - - - - - - - - -
18/11:00pm 11.8 SSW 16 23 1008.5 - - - - - - - - -
18/10:30pm 12.4 SSW 13 19 1008.4 - - - - - - - - -
18/10:00pm 12.2 SSW 16 21 1008.1 - - - - - - - - -
18/09:30pm 11.9 SSW 14 21 1007.9 - - - - - - - - -
18/09:00pm 12.4 SW 12 16 1007.7 - - - - - - - - -
18/08:30pm 12.2 SW 9 12 1007.4 - - - - - - - - -
18/08:00pm 12.1 SW 9 13 1007.1 - - - - - - - - -

Other Formats:

Comma delimited format used in spreadsheet applications
http://www.bom.gov.au/fwo/IDS60701/IDS60701.95826.axf

JavaScript Object Notation format (JSON) in row-major order
http://www.bom.gov.au/fwo/IDS60701/IDS60701.95826.json